Temp: 18.0°C   Baro: 1015.6mb
  Wind: 8.1mph   Dir: WSW (254°)
  Rain: 0.6mm (0.0mm/hr)
  Solar: 540W/m2  Hum: 59%
 
Bath Spa Weather Station Historical Data
Daily Summary for August 01, 2020 Units:  Metric    English   Both
Daily Weekly Monthly Yearly Custom
  High: Low: Average:
Temperature: 20.9 °C 13.4 °C 17.1 °C
Dew Point: 15.2 °C 9.4 °C 13.2 °C
Humidity: 90% 63.8% 79%
Wind Speed: 20.3km/h 0km/h 7.9km/h
Wind Gust: 33.8km/h - -
Wind- - WNW
Pressure: 1017.5 hPa 1013.1 hPa -
Precipitation: 0.51 mm    
Historical Graphs
 
 
Tabular Data for August 01, 2020
Time Temperature Dew Point Pressure Wind Wind Speed Wind Gust Humidity Rainfall Rate (Hourly) solar
00:04 16.4 °C 13.9 °C 1013.1 hPa West 4.3 km/h 9.7 km/h 85% 0 mm 0 W/m2
00:09 16.3 °C 13.9 °C 1013.1 hPa West 6 km/h 14.5 km/h 85.4% 0 mm 0 W/m2
00:14 16.3 °C 14 °C 1013.1 hPa West 5.8 km/h 11.3 km/h 86% 0 mm 0 W/m2
00:19 16.2 °C 13.9 °C 1013.1 hPa West 6.9 km/h 12.9 km/h 86% 0 mm 0 W/m2
00:23 16.2 °C 13.9 °C 1013.4 hPa WNW 6 km/h 12.9 km/h 86% 0 mm 0 W/m2
00:29 16.2 °C 13.9 °C 1013.4 hPa West 4.7 km/h 9.7 km/h 86% 0 mm 0 W/m2
00:34 16.2 °C 13.9 °C 1013.4 hPa West 5.8 km/h 9.7 km/h 86.6% 0 mm 0 W/m2
00:39 16.2 °C 14 °C 1013.4 hPa West 6.8 km/h 14.5 km/h 87% 0 mm 0 W/m2
00:44 16.1 °C 13.9 °C 1013.4 hPa WNW 6.3 km/h 14.5 km/h 87% 0 mm 0 W/m2
00:49 16.1 °C 13.9 °C 1013.4 hPa WNW 5.1 km/h 11.3 km/h 87% 0 mm 0 W/m2
00:54 16.1 °C 13.9 °C 1013.4 hPa WNW 4.7 km/h 9.7 km/h 87% 0 mm 0 W/m2
00:59 16.1 °C 14.1 °C 1013.4 hPa WNW 7.6 km/h 11.3 km/h 88% 0 mm 0 W/m2
01:04 16.1 °C 14.1 °C 1013.4 hPa WNW 6.1 km/h 11.3 km/h 88% 0 mm 0 W/m2
01:09 16.1 °C 14.1 °C 1013.8 hPa WNW 4.7 km/h 9.7 km/h 88% 0 mm 0 W/m2
01:14 16.1 °C 14.1 °C 1013.8 hPa West 6.4 km/h 12.9 km/h 88% 0 mm 0 W/m2
01:19 16.1 °C 14.1 °C 1013.8 hPa WNW 5.1 km/h 11.3 km/h 88% 0 mm 0 W/m2
01:24 16.1 °C 14.1 °C 1013.8 hPa West 5.3 km/h 9.7 km/h 88% 0 mm 0 W/m2
01:29 16.1 °C 14.1 °C 1013.8 hPa West 7.2 km/h 11.3 km/h 88% 0 mm 0 W/m2
01:34 16.2 °C 14.2 °C 1013.8 hPa West 6 km/h 9.7 km/h 88% 0 mm 0 W/m2
01:39 16.1 °C 14.1 °C 1013.8 hPa West 4 km/h 11.3 km/h 88% 0 mm 0 W/m2
01:44 16.1 °C 14.1 °C 1013.8 hPa West 6 km/h 11.3 km/h 88% 0 mm 0 W/m2
01:49 16.1 °C 14.1 °C 1013.8 hPa WNW 5.5 km/h 12.9 km/h 88% 0 mm 0 W/m2
01:54 15.9 °C 13.9 °C 1013.8 hPa NW 5.1 km/h 9.7 km/h 88% 0 mm 0 W/m2
01:59 15.9 °C 13.9 °C 1013.8 hPa WNW 1.9 km/h 8 km/h 88% 0 mm 0 W/m2
02:04 15.8 °C 13.8 °C 1013.8 hPa NW 4.8 km/h 9.7 km/h 88% 0 mm 0 W/m2
02:09 15.8 °C 13.8 °C 1013.8 hPa WNW 2.7 km/h 8 km/h 88% 0 mm 0 W/m2
02:14 15.7 °C 13.7 °C 1013.8 hPa NW 3.9 km/h 8 km/h 88% 0 mm 0 W/m2
02:19 15.6 °C 13.7 °C 1013.8 hPa NW 3.7 km/h 6.4 km/h 88.7% 0 mm 0 W/m2
02:24 15.6 °C 13.7 °C 1013.8 hPa NW 3.2 km/h 8 km/h 88.4% 0 mm 0 W/m2
02:29 15.5 °C 13.7 °C 1013.8 hPa NW 2.7 km/h 6.4 km/h 89% 0 mm 0 W/m2
02:34 15.4 °C 13.7 °C 1013.8 hPa NNW 3.5 km/h 6.4 km/h 89% 0 mm 0 W/m2
02:39 15.4 °C 13.6 °C 1013.8 hPa NNW 3.2 km/h 6.4 km/h 89% 0 mm 0 W/m2
02:44 15.3 °C 13.6 °C 1013.8 hPa NW 3.7 km/h 6.4 km/h 89% 0 mm 0 W/m2
02:49 15.3 °C 13.5 °C 1013.8 hPa NW 3.7 km/h 6.4 km/h 89% 0 mm 0 W/m2
02:59 15.2 °C 13.4 °C 1013.8 hPa NW 1.6 km/h 6.4 km/h 89% 0 mm 0 W/m2
03:04 15.2 °C 13.4 °C 1013.8 hPa Calm   3.2 km/h 89% 0 mm 0 W/m2
03:09 15.1 °C 13.3 °C 1013.8 hPa Calm     89% 0 mm 0 W/m2
03:14 15.1 °C 13.3 °C 1013.8 hPa NW 0.3 km/h 1.6 km/h 89% 0 mm 0 W/m2
03:19 15.1 °C 13.4 °C 1013.8 hPa Calm     89.6% 0 mm 0 W/m2
03:23 15.1 °C 13.4 °C 1013.8 hPa NW 2.7 km/h 4.8 km/h 89.8% 0 mm 0 W/m2
03:29 15 °C 13.4 °C 1013.8 hPa NW 1.1 km/h 4.8 km/h 90% 0 mm 0 W/m2
03:34 14.9 °C 13.2 °C 1013.8 hPa NW 1.3 km/h 4.8 km/h 89.6% 0 mm 0 W/m2
03:39 14.9 °C 13.2 °C 1013.8 hPa NW 1 km/h 3.2 km/h 89.2% 0 mm 0 W/m2
03:44 14.8 °C 13 °C 1013.8 hPa NW 0.6 km/h 4.8 km/h 89% 0 mm 0 W/m2
03:49 14.7 °C 12.9 °C 1013.8 hPa NW 3.9 km/h 6.4 km/h 89% 0 mm 0 W/m2
03:54 14.7 °C 12.9 °C 1013.8 hPa NW 3.4 km/h 8 km/h 89% 0 mm 0 W/m2
03:59 14.6 °C 12.8 °C 1013.8 hPa NW 2.1 km/h 8 km/h 89% 0 mm 0 W/m2
04:04 14.6 °C 12.8 °C 1013.8 hPa NW 2.9 km/h 4.8 km/h 89% 0 mm 0 W/m2
04:09 14.6 °C 12.8 °C 1014.1 hPa NW 2.6 km/h 6.4 km/h 89% 0 mm 0 W/m2
04:14 14.6 °C 12.8 °C 1014.1 hPa NW 2.4 km/h 4.8 km/h 89% 0 mm 0 W/m2
04:19 14.5 °C 12.7 °C 1014.1 hPa NW 2.1 km/h 4.8 km/h 89% 0 mm 0 W/m2
04:24 14.5 °C 12.7 °C 1014.1 hPa NW 1.3 km/h 4.8 km/h 89% 0 mm 0 W/m2
04:29 14.5 °C 12.7 °C 1014.1 hPa NW 2.3 km/h 6.4 km/h 89% 0 mm 0 W/m2
04:33 14.5 °C 12.7 °C 1014.1 hPa NW 2.4 km/h 4.8 km/h 89% 0 mm 0 W/m2
04:39 14.5 °C 12.7 °C 1014.1 hPa NW 1.9 km/h 4.8 km/h 89% 0 mm 0 W/m2
04:44 14.5 °C 12.7 °C 1014.1 hPa NW 1.3 km/h 4.8 km/h 89% 0 mm 0 W/m2
04:49 14.4 °C 12.7 °C 1014.1 hPa NW 1.3 km/h 3.2 km/h 89.6% 0 mm 0 W/m2
04:54 14.4 °C 12.7 °C 1014.1 hPa NW 3.4 km/h 6.4 km/h 89.8% 0 mm 0 W/m2
04:59 14.4 °C 12.7 °C 1014.1 hPa NW 2.6 km/h 6.4 km/h 89.2% 0 mm 0 W/m2
05:04 14.4 °C 12.7 °C 1014.1 hPa NW 2.6 km/h 4.8 km/h 89.2% 0 mm 0 W/m2
05:09 14.3 °C 12.7 °C 1014.1 hPa NW 2.3 km/h 6.4 km/h 90% 0 mm 0 W/m2
05:14 14.3 °C 12.7 °C 1014.1 hPa NW 1.6 km/h 6.4 km/h 90% 0 mm 0 W/m2
05:19 14.3 °C 12.7 °C 1014.1 hPa NW 2.9 km/h 6.4 km/h 90% 0 mm 0 W/m2
05:24 14.3 °C 12.7 °C 1014.1 hPa NW 2.3 km/h 4.8 km/h 90% 0 mm 0 W/m2
05:29 14.3 °C 12.7 °C 1014.4 hPa NW 1.9 km/h 6.4 km/h 90% 0 mm 0 W/m2
05:33 14.3 °C 12.7 °C 1014.4 hPa NW 4 km/h 6.4 km/h 90% 0 mm 0 W/m2
05:39 14.4 °C 12.8 °C 1014.4 hPa NW 0.8 km/h 4.8 km/h 90% 0 mm 0 W/m2
05:44 14.4 °C 12.8 °C 1014.4 hPa NW 0.3 km/h 4.8 km/h 90% 0 mm 5 W/m2
05:49 14.5 °C 12.9 °C 1014.4 hPa WSW 0.6 km/h 4.8 km/h 90% 0 mm 12 W/m2
05:54 14.6 °C 13 °C 1014.4 hPa Calm   3.2 km/h 90% 0 mm 12 W/m2
05:59 14.7 °C 13.1 °C 1014.4 hPa SW 1 km/h 6.4 km/h 90% 0 mm 11 W/m2
06:04 14.7 °C 13.2 °C 1014.4 hPa Calm     90% 0 mm 14 W/m2
06:09 14.8 °C 13.2 °C 1014.4 hPa Calm   3.2 km/h 90% 0 mm 18 W/m2
06:14 14.8 °C 13.2 °C 1014.4 hPa Calm     90% 0 mm 26 W/m2
06:19 14.8 °C 13.2 °C 1014.4 hPa Calm     90% 0 mm 40 W/m2
06:24 14.8 °C 13.2 °C 1014.4 hPa Calm     90% 0 mm 35 W/m2
06:29 14.9 °C 13.3 °C 1014.4 hPa Calm     90% 0 mm 32 W/m2
06:34 14.9 °C 13.3 °C 1014.4 hPa Calm     90% 0 mm 33 W/m2
06:39 14.9 °C 13.3 °C 1014.4 hPa Calm     90% 0 mm 28 W/m2
06:44 15.1 °C 13.4 °C 1014.4 hPa Calm   3.2 km/h 90% 0 mm 46 W/m2
06:49 15.1 °C 13.5 °C 1014.4 hPa Calm     89.8% 0 mm 65 W/m2
06:53 15.2 °C 13.5 °C 1014.4 hPa SW 0.8 km/h 3.2 km/h 89.3% 0 mm 76 W/m2
06:59 15.3 °C 13.5 °C 1014.4 hPa SW 3.2 km/h 8 km/h 89.2% 0 mm 47 W/m2
07:04 15.3 °C 13.5 °C 1014.4 hPa SW 0.3 km/h 8 km/h 89% 0 mm 53 W/m2
07:09 15.4 °C 13.6 °C 1014.4 hPa Calm   4.8 km/h 89% 0 mm 62 W/m2
07:14 15.6 °C 13.8 °C 1014.4 hPa Calm     89% 0 mm 79 W/m2
07:19 15.6 °C 13.8 °C 1014.4 hPa Calm     89% 0 mm 63 W/m2
07:24 15.7 °C 13.9 °C 1014.4 hPa Calm     89% 0 mm 53 W/m2
07:29 15.7 °C 13.9 °C 1014.4 hPa Calm     89% 0 mm 39 W/m2
07:33 15.8 °C 14 °C 1014.4 hPa Calm   1.6 km/h 89% 0 mm 39 W/m2
07:39 15.9 °C 13.9 °C 1014.4 hPa SW 2.9 km/h 8 km/h 88.2% 0 mm 70 W/m2
07:44 16 °C 14 °C 1014.4 hPa WSW 5.3 km/h 11.3 km/h 88% 0 mm 74 W/m2
07:49 16.1 °C 14.1 °C 1014.4 hPa Calm   4.8 km/h 88% 0 mm 72 W/m2
07:54 16.2 °C 14.2 °C 1014.4 hPa West 2.9 km/h 8 km/h 88% 0 mm 146 W/m2
07:59 16.2 °C 14.2 °C 1014.4 hPa WNW 2.7 km/h 8 km/h 88% 0 mm 218 W/m2
08:04 16.3 °C 14.2 °C 1014.4 hPa West 3.5 km/h 9.7 km/h 87.8% 0 mm 155 W/m2
08:09 16.4 °C 14.3 °C 1014.4 hPa WSW 6.4 km/h 12.9 km/h 87.4% 0 mm 156 W/m2
08:14 16.7 °C 14.4 °C 1014.8 hPa SW 6.3 km/h 12.9 km/h 87% 0 mm 176 W/m2
08:19 16.7 °C 14.3 °C 1014.8 hPa SW 7.6 km/h 12.9 km/h 86.2% 0 mm 149 W/m2
08:24 16.7 °C 14.3 °C 1014.8 hPa SW 3.4 km/h 9.7 km/h 86% 0 mm 149 W/m2
08:29 16.7 °C 14.3 °C 1014.8 hPa SW 8.9 km/h 16.1 km/h 86% 0 mm 134 W/m2
08:34 16.8 °C 14.3 °C 1014.8 hPa SW 7.1 km/h 12.9 km/h 85.8% 0 mm 169 W/m2
08:39 16.9 °C 14.4 °C 1014.8 hPa WSW 5.3 km/h 9.7 km/h 85% 0 mm 192 W/m2
08:44 17 °C 14.5 °C 1014.8 hPa SW 8 km/h 16.1 km/h 85% 0 mm 207 W/m2
08:49 16.9 °C 14.3 °C 1014.8 hPa WSW 4.2 km/h 14.5 km/h 84.4% 0 mm 141 W/m2
08:54 17.1 °C 14.6 °C 1015.1 hPa SW 6.1 km/h 12.9 km/h 84.8% 0 mm 135 W/m2
08:59 17.1 °C 14.4 °C 1015.1 hPa SW 4.2 km/h 9.7 km/h 84% 0 mm 142 W/m2
09:04 17.1 °C 14.4 °C 1015.1 hPa WSW 6.3 km/h 14.5 km/h 84% 0 mm 158 W/m2
09:09 17.2 °C 14.5 °C 1015.1 hPa SW 5.3 km/h 12.9 km/h 84% 0 mm 144 W/m2
09:14 17.2 °C 14.5 °C 1015.1 hPa SW 6.4 km/h 14.5 km/h 84% 0 mm 204 W/m2
09:19 17.3 °C 14.6 °C 1015.1 hPa WSW 7.9 km/h 11.3 km/h 84% 0 mm 257 W/m2
09:24 17.4 °C 14.7 °C 1015.1 hPa WSW 7.4 km/h 11.3 km/h 83.8% 0 mm 408 W/m2
09:29 17.7 °C 14.8 °C 1015.1 hPa SW 2.9 km/h 9.7 km/h 83% 0 mm 274 W/m2
09:34 17.8 °C 14.8 °C 1015.1 hPa SSW 5.3 km/h 12.9 km/h 82.2% 0 mm 267 W/m2
09:39 17.9 °C 14.7 °C 1015.1 hPa SW 6.8 km/h 11.3 km/h 81.8% 0 mm 281 W/m2
09:44 18.2 °C 15 °C 1015.1 hPa SW 6.6 km/h 14.5 km/h 81.6% 0 mm 596 W/m2
09:49 18.5 °C 15 °C 1015.1 hPa SW 7.6 km/h 14.5 km/h 80% 0 mm 707 W/m2
09:54 18.7 °C 14.9 °C 1015.1 hPa SW 7.9 km/h 19.3 km/h 78.8% 0 mm 842 W/m2
09:59 18.8 °C 15 °C 1015.1 hPa WSW 8 km/h 16.1 km/h 78.4% 0 mm 362 W/m2
10:04 18.7 °C 14.8 °C 1015.1 hPa WSW 7.9 km/h 16.1 km/h 78% 0 mm 218 W/m2
10:09 18.6 °C 14.7 °C 1015.1 hPa West 5.8 km/h 16.1 km/h 78% 0 mm 258 W/m2
10:14 18.7 °C 14.9 °C 1015.1 hPa WSW 6 km/h 12.9 km/h 78.8% 0 mm 244 W/m2
10:18 18.7 °C 14.8 °C 1015.1 hPa SW 9.3 km/h 14.5 km/h 78.3% 0 mm 258 W/m2
10:24 18.6 °C 14.8 °C 1015.1 hPa SW 11.9 km/h 19.3 km/h 78.4% 0 mm 315 W/m2
10:29 18.5 °C 14.9 °C 1015.1 hPa WSW 7.1 km/h 19.3 km/h 79.5% 0 mm 373 W/m2
10:34 18.6 °C 15.1 °C 1015.5 hPa WSW 9.5 km/h 17.7 km/h 80% 0 mm 294 W/m2
10:39 18.2 °C 14.8 °C 1015.8 hPa WNW 10.3 km/h 24.1 km/h 80.6% 0.25 mm 97 W/m2
10:44 17.2 °C 14.4 °C 1015.8 hPa WNW 11.9 km/h 17.7 km/h 83.6% 0.51 mm 135 W/m2
10:49 16.8 °C 14.4 °C 1015.8 hPa WNW 9.7 km/h 14.5 km/h 86.2% 0.51 mm 271 W/m2
10:54 16.8 °C 14.7 °C 1015.8 hPa West 6.3 km/h 12.9 km/h 87.6% 0.51 mm 355 W/m2
10:59 16.8 °C 15 °C 1015.8 hPa West 7.4 km/h 14.5 km/h 88.6% 0.51 mm 364 W/m2
11:04 16.9 °C 15.1 °C 1015.8 hPa WNW 11.6 km/h 16.1 km/h 89% 0.51 mm 287 W/m2
11:09 16.9 °C 15.2 °C 1015.8 hPa NW 8.9 km/h 25.7 km/h 89% 0.51 mm 294 W/m2
11:14 17 °C 15 °C 1015.8 hPa WNW 9.8 km/h 25.7 km/h 88% 0.51 mm 329 W/m2
11:19 17.1 °C 14.9 °C 1015.8 hPa West 10 km/h 17.7 km/h 87.2% 0.51 mm 327 W/m2
11:24 17.3 °C 15 °C 1015.8 hPa WNW 7.9 km/h 17.7 km/h 86% 0.51 mm 334 W/m2
11:29 17.6 °C 15.1 °C 1015.8 hPa WNW 10 km/h 17.7 km/h 85.4% 0.51 mm 411 W/m2
11:34 17.7 °C 14.9 °C 1015.8 hPa West 15.4 km/h 24.1 km/h 83.6% 0.51 mm 350 W/m2
11:39 17.8 °C 14.7 °C 1015.8 hPa West 13.2 km/h 19.3 km/h 81.6% 0.51 mm 450 W/m2
11:44 18.1 °C 14.4 °C 1015.8 hPa West 10 km/h 22.5 km/h 79.4% 0.25 mm 346 W/m2
11:49 18.2 °C 14.4 °C 1015.8 hPa WNW 11.3 km/h 17.7 km/h 78.6% 0 mm 552 W/m2
11:54 18.3 °C 14.3 °C 1015.8 hPa West 10.6 km/h 17.7 km/h 77.4% 0 mm 338 W/m2
11:59 18.6 °C 14.3 °C 1015.8 hPa WNW 10.3 km/h 17.7 km/h 76% 0 mm 533 W/m2
12:04 19.1 °C 14.2 °C 1015.8 hPa West 13.2 km/h 22.5 km/h 73.2% 0 mm 861 W/m2
12:09 19.4 °C 13.9 °C 1015.8 hPa West 12.9 km/h 29 km/h 70.4% 0 mm 942 W/m2
12:14 19.7 °C 14.1 °C 1015.8 hPa WNW 14.5 km/h 29 km/h 69.8% 0 mm 946 W/m2
12:19 19.6 °C 13.8 °C 1015.8 hPa West 13.4 km/h 24.1 km/h 68.8% 0 mm 946 W/m2
12:24 19.9 °C 13.9 °C 1015.8 hPa West 13.8 km/h 27.4 km/h 68.6% 0 mm 875 W/m2
12:29 20.2 °C 14.1 °C 1015.8 hPa WNW 12.9 km/h 24.1 km/h 68% 0 mm 946 W/m2
12:33 20.2 °C 14.1 °C 1015.8 hPa WNW 19.3 km/h 27.4 km/h 67.8% 0 mm 1041 W/m2
12:39 20 °C 13.6 °C 1015.8 hPa WNW 12.6 km/h 27.4 km/h 66.4% 0 mm 482 W/m2
12:44 19.8 °C 13.7 °C 1015.8 hPa WNW 8.4 km/h 24.1 km/h 68% 0 mm 905 W/m2
12:49 19.9 °C 13.5 °C 1015.8 hPa WNW 13.8 km/h 27.4 km/h 66.4% 0 mm 262 W/m2
12:54 19.8 °C 13.6 °C 1015.8 hPa WNW 13.2 km/h 24.1 km/h 67.2% 0 mm 378 W/m2
12:59 20 °C 13.9 °C 1015.8 hPa WNW 10.6 km/h 22.5 km/h 68% 0 mm 691 W/m2
13:03 20.7 °C 14.5 °C 1015.8 hPa West 14.8 km/h 22.5 km/h 67.8% 0 mm 1248 W/m2
13:09 20.4 °C 14.4 °C 1015.8 hPa WNW 12.6 km/h 24.1 km/h 68.6% 0 mm 601 W/m2
13:14 20 °C 14.6 °C 1015.8 hPa NW 14.2 km/h 29 km/h 70.8% 0 mm 499 W/m2
13:19 19.7 °C 14.4 °C 1015.8 hPa WNW 18.5 km/h 29 km/h 71.8% 0 mm 536 W/m2
13:24 19.7 °C 14.5 °C 1015.8 hPa West 14.8 km/h 25.7 km/h 71.8% 0 mm 1069 W/m2
13:29 20.1 °C 14.8 °C 1015.8 hPa West 17.4 km/h 25.7 km/h 71.2% 0 mm 1113 W/m2
13:34 20.3 °C 15.1 °C 1015.8 hPa West 16.9 km/h 22.5 km/h 72% 0 mm 854 W/m2
13:39 20.2 °C 14.7 °C 1016.1 hPa WNW 10.8 km/h 24.1 km/h 70.8% 0 mm 628 W/m2
13:44 20.4 °C 14.5 °C 1016.1 hPa WNW 13.8 km/h 32.2 km/h 69% 0 mm 1130 W/m2
13:49 20.2 °C 13.8 °C 1016.1 hPa WNW 15.9 km/h 32.2 km/h 66.8% 0 mm 1130 W/m2
13:54 20.3 °C 13.8 °C 1016.1 hPa WNW 14.2 km/h 27.4 km/h 66.4% 0 mm 976 W/m2
13:59 20.2 °C 13.9 °C 1016.1 hPa West 10.3 km/h 27.4 km/h 67.2% 0 mm 846 W/m2
14:04 20.2 °C 14.1 °C 1016.1 hPa West 16.1 km/h 29 km/h 68% 0 mm 858 W/m2
14:09 20.3 °C 14.4 °C 1015.8 hPa WNW 14.8 km/h 24.1 km/h 69% 0 mm 990 W/m2
14:14 20.9 °C 14.6 °C 1015.8 hPa West 12.1 km/h 33.8 km/h 67.2% 0 mm 990 W/m2
14:19 20.6 °C 14 °C 1016.1 hPa WNW 15.1 km/h 33.8 km/h 66% 0 mm 932 W/m2
14:24 20.3 °C 13.7 °C 1016.1 hPa WNW 18.3 km/h 27.4 km/h 66.2% 0 mm 932 W/m2
14:29 20.2 °C 13.8 °C 1016.1 hPa WNW 12.2 km/h 22.5 km/h 66.6% 0 mm 791 W/m2
14:34 20.3 °C 13.8 °C 1016.1 hPa WNW 11.6 km/h 24.1 km/h 66.4% 0 mm 895 W/m2
14:39 20.5 °C 13.6 °C 1016.1 hPa West 16.6 km/h 32.2 km/h 64.6% 0 mm 840 W/m2
14:44 20.3 °C 13.5 °C 1016.1 hPa WNW 12.6 km/h 32.2 km/h 65% 0 mm 831 W/m2
14:49 20.2 °C 13.6 °C 1016.1 hPa WNW 17.1 km/h 29 km/h 65.6% 0 mm 847 W/m2
14:54 20.4 °C 13.7 °C 1016.1 hPa West 19.6 km/h 25.7 km/h 65.6% 0 mm 840 W/m2
14:59 20.1 °C 13.6 °C 1016.1 hPa West 16.4 km/h 24.1 km/h 66.4% 0 mm 793 W/m2
15:04 20.3 °C 14 °C 1016.1 hPa WNW 12.9 km/h 24.1 km/h 66.8% 0 mm 851 W/m2
15:09 20.7 °C 13.9 °C 1016.1 hPa West 14.8 km/h 25.7 km/h 65% 0 mm 789 W/m2
15:14 20.6 °C 13.5 °C 1016.1 hPa West 14.8 km/h 27.4 km/h 63.8% 0 mm 756 W/m2
15:19 20.4 °C 13.6 °C 1016.1 hPa WNW 15.8 km/h 25.7 km/h 65% 0 mm 805 W/m2
15:24 20.1 °C 13.5 °C 1016.1 hPa WNW 13.8 km/h 25.7 km/h 66% 0 mm 805 W/m2
15:29 20.3 °C 13.6 °C 1016.1 hPa WSW 12.9 km/h 27.4 km/h 65.2% 0 mm 786 W/m2
15:34 20.5 °C 13.6 °C 1016.1 hPa West 14.8 km/h 27.4 km/h 64.8% 0 mm 761 W/m2
15:39 20.3 °C 13.6 °C 1016.1 hPa West 18.3 km/h 33.8 km/h 65.2% 0 mm 751 W/m2
15:43 20.2 °C 13.4 °C 1016.1 hPa West 15 km/h 33.8 km/h 65.3% 0 mm 721 W/m2
15:49 20.1 °C 13.4 °C 1016.1 hPa West 15.9 km/h 30.6 km/h 65.4% 0 mm 712 W/m2
15:54 20.3 °C 13.6 °C 1016.1 hPa West 13.5 km/h 27.4 km/h 65% 0 mm 686 W/m2
15:59 20.5 °C 13.5 °C 1016.1 hPa West 10.3 km/h 25.7 km/h 64.2% 0 mm 721 W/m2
16:04 20.6 °C 13.7 °C 1016.1 hPa West 11.9 km/h 20.9 km/h 64.8% 0 mm 671 W/m2
16:09 20.5 °C 13.8 °C 1016.1 hPa West 14.8 km/h 27.4 km/h 65.4% 0 mm 701 W/m2
16:14 20.5 °C 13.9 °C 1016.1 hPa NW 11.3 km/h 22.5 km/h 66.2% 0 mm 701 W/m2
16:19 20.3 °C 13.8 °C 1016.1 hPa WNW 16.4 km/h 29 km/h 66.4% 0 mm 679 W/m2
16:24 20.2 °C 13.6 °C 1016.1 hPa WNW 18 km/h 29 km/h 66% 0 mm 686 W/m2
16:29 20.2 °C 13.7 °C 1016.1 hPa NW 13.5 km/h 29 km/h 66.6% 0 mm 642 W/m2
16:34 20.2 °C 13.6 °C 1016.1 hPa WNW 16.1 km/h 30.6 km/h 66.3% 0 mm 543 W/m2
16:39 19.7 °C 13.5 °C 1016.1 hPa West 15.8 km/h 30.6 km/h 67.6% 0 mm 517 W/m2
16:44 19.7 °C 13.6 °C 1016.1 hPa WNW 17.2 km/h 29 km/h 68% 0 mm 596 W/m2
16:49 19.8 °C 13.9 °C 1016.1 hPa WNW 14.2 km/h 27.4 km/h 69% 0 mm 612 W/m2
16:54 20.1 °C 13.9 °C 1016.1 hPa NW 15.8 km/h 22.5 km/h 68% 0 mm 585 W/m2
16:59 19.8 °C 13.7 °C 1016.1 hPa WNW 15.4 km/h 29 km/h 67.8% 0 mm 577 W/m2
17:04 19.8 °C 13.7 °C 1016.1 hPa NW 14.8 km/h 27.4 km/h 68% 0 mm 547 W/m2
17:09 19.8 °C 13.6 °C 1016.1 hPa WNW 11.9 km/h 27.4 km/h 67.4% 0 mm 536 W/m2
17:14 19.8 °C 13.5 °C 1016.1 hPa WNW 14.2 km/h 22.5 km/h 67% 0 mm 524 W/m2
17:19 19.8 °C 13.6 °C 1016.1 hPa West 16.1 km/h 27.4 km/h 67.2% 0 mm 522 W/m2
17:24 19.6 °C 13.2 °C 1016.1 hPa WNW 13.2 km/h 27.4 km/h 66.6% 0 mm 494 W/m2
17:29 19.4 °C 13.1 °C 1016.1 hPa WNW 20.3 km/h 30.6 km/h 66.8% 0 mm 485 W/m2
17:34 19.4 °C 13.1 °C 1016.5 hPa WNW 11.7 km/h 30.6 km/h 66.6% 0 mm 471 W/m2
17:39 19.6 °C 13.2 °C 1016.5 hPa West 13.2 km/h 25.7 km/h 66.8% 0 mm 462 W/m2
17:44 19.5 °C 13.1 °C 1016.1 hPa WNW 15.8 km/h 27.4 km/h 66.8% 0 mm 443 W/m2
17:49 19.3 °C 13.1 °C 1016.1 hPa WNW 14.5 km/h 24.1 km/h 67% 0 mm 431 W/m2
17:54 19.3 °C 13 °C 1016.1 hPa WNW 17.4 km/h 27.4 km/h 66.6% 0 mm 417 W/m2
17:59 19.2 °C 12.9 °C 1016.1 hPa WNW 15.4 km/h 24.1 km/h 67% 0 mm 410 W/m2
18:04 19.3 °C 13 °C 1016.1 hPa West 14.5 km/h 25.7 km/h 67% 0 mm 392 W/m2
18:09 19.2 °C 12.9 °C 1016.1 hPa West 14.2 km/h 25.7 km/h 67% 0 mm 380 W/m2
18:14 19.1 °C 12.8 °C 1016.1 hPa WNW 15.1 km/h 29 km/h 67% 0 mm 371 W/m2
18:19 19.1 °C 13 °C 1016.5 hPa West 12.2 km/h 29 km/h 67.6% 0 mm 350 W/m2
18:24 19 °C 12.7 °C 1016.5 hPa WNW 13.8 km/h 24.1 km/h 67% 0 mm 345 W/m2
18:29 19.2 °C 12.8 °C 1016.5 hPa West 14.5 km/h 24.1 km/h 67% 0 mm 330 W/m2
18:34 19 °C 12.6 °C 1016.1 hPa WNW 14.8 km/h 29 km/h 66.5% 0 mm 311 W/m2
18:39 18.8 °C 12.3 °C 1016.5 hPa West 14.2 km/h 29 km/h 66.4% 0 mm 301 W/m2
18:44 18.9 °C 12.7 °C 1016.1 hPa WNW 9 km/h 17.7 km/h 67% 0 mm 285 W/m2
18:49 18.8 °C 12.3 °C 1016.1 hPa WNW 11.9 km/h 29 km/h 66% 0 mm 271 W/m2
18:54 18.6 °C 12.1 °C 1016.1 hPa West 14.5 km/h 29 km/h 66% 0 mm 260 W/m2
18:59 18.6 °C 12.2 °C 1016.1 hPa West 11.9 km/h 20.9 km/h 66.4% 0 mm 244 W/m2
19:04 18.7 °C 12.3 °C 1016.5 hPa West 17.7 km/h 20.9 km/h 66.5% 0 mm 236 W/m2
19:09 18.6 °C 12.3 °C 1016.5 hPa West 10.5 km/h 22.5 km/h 67% 0 mm 223 W/m2
19:14 18.4 °C 12.3 °C 1016.5 hPa WNW 12.1 km/h 27.4 km/h 67% 0 mm 207 W/m2
19:19 18.3 °C 12.1 °C 1016.1 hPa WNW 15.8 km/h 22.5 km/h 67% 0 mm 192 W/m2
19:24 18.1 °C 12.1 °C 1016.1 hPa WNW 16.1 km/h 24.1 km/h 68% 0 mm 179 W/m2
19:29 18.1 °C 12.1 °C 1016.5 hPa WNW 12.9 km/h 27.4 km/h 68% 0 mm 165 W/m2
19:34 17.9 °C 11.9 °C 1016.5 hPa West 18 km/h 25.7 km/h 68% 0 mm 149 W/m2
19:39 17.7 °C 11.7 °C 1016.5 hPa West 14.2 km/h 27.4 km/h 68% 0 mm 132 W/m2
19:44 17.6 °C 11.8 °C 1016.5 hPa West 13.8 km/h 27.4 km/h 69% 0 mm 120 W/m2
19:49 17.5 °C 11.7 °C 1016.5 hPa West 13.8 km/h 25.7 km/h 69% 0 mm 102 W/m2
19:54 17.3 °C 11.6 °C 1016.5 hPa WNW 13.8 km/h 25.7 km/h 69% 0 mm 90 W/m2
19:59 17.3 °C 11.8 °C 1016.5 hPa WNW 10.1 km/h 25.7 km/h 69.8% 0 mm 76 W/m2
20:04 17.3 °C 11.8 °C 1016.5 hPa West 10.6 km/h 25.7 km/h 70% 0 mm 62 W/m2
20:09 17.1 °C 11.7 °C 1016.5 hPa West 11.3 km/h 19.3 km/h 70.6% 0 mm 53 W/m2
20:14 16.9 °C 11.4 °C 1016.5 hPa WNW 12.9 km/h 24.1 km/h 70.2% 0 mm 40 W/m2
20:19 16.7 °C 11.6 °C 1016.8 hPa WNW 12.1 km/h 24.1 km/h 71.5% 0 mm 32 W/m2
20:24 16.6 °C 11.6 °C 1016.8 hPa West 11.4 km/h 19.3 km/h 72.4% 0 mm 25 W/m2
20:29 16.4 °C 11.7 °C 1016.8 hPa West 9.5 km/h 16.1 km/h 73.6% 0 mm 18 W/m2
20:34 16.3 °C 11.7 °C 1016.8 hPa WNW 6.8 km/h 16.1 km/h 74% 0 mm 16 W/m2
20:39 16.2 °C 11.8 °C 1016.8 hPa WNW 3.2 km/h 9.7 km/h 75% 0 mm 12 W/m2
20:44 16.2 °C 11.8 °C 1016.8 hPa WNW 6 km/h 11.3 km/h 75.4% 0 mm 11 W/m2
20:49 16 °C 11.8 °C 1016.8 hPa WNW 5.6 km/h 16.1 km/h 76% 0 mm 7 W/m2
20:54 15.8 °C 11.7 °C 1016.8 hPa West 8.7 km/h 14.5 km/h 76% 0 mm 5 W/m2
20:59 15.7 °C 11.6 °C 1016.8 hPa WNW 5.3 km/h 14.5 km/h 76% 0 mm 0 W/m2
21:04 15.7 °C 11.7 °C 1016.8 hPa NW 6.6 km/h 12.9 km/h 77% 0 mm 0 W/m2
21:09 15.6 °C 11.6 °C 1016.8 hPa West 6.4 km/h 14.5 km/h 77% 0 mm 0 W/m2
21:14 15.4 °C 11.4 °C 1016.8 hPa West 8.9 km/h 16.1 km/h 77% 0 mm 0 W/m2
21:19 15.3 °C 11.4 °C 1017.2 hPa West 9 km/h 16.1 km/h 77.6% 0 mm 0 W/m2
21:24 15.2 °C 11.4 °C 1017.2 hPa WNW 4.7 km/h 14.5 km/h 78% 0 mm 0 W/m2
21:29 15.2 °C 11.3 °C 1017.2 hPa WNW 4 km/h 11.3 km/h 78% 0 mm 0 W/m2
21:34 15.1 °C 11.4 °C 1017.2 hPa West 5 km/h 11.3 km/h 78.6% 0 mm 0 W/m2
21:39 14.9 °C 11.3 °C 1017.2 hPa WNW 8 km/h 12.9 km/h 79% 0 mm 0 W/m2
21:44 14.8 °C 11.2 °C 1017.2 hPa WNW 3.7 km/h 11.3 km/h 79% 0 mm 0 W/m2
21:49 14.8 °C 11.2 °C 1017.2 hPa WNW 8.7 km/h 14.5 km/h 79% 0 mm 0 W/m2
21:54 14.8 °C 11.2 °C 1017.2 hPa WNW 4.8 km/h 14.5 km/h 79% 0 mm 0 W/m2
21:59 14.8 °C 11.2 °C 1017.5 hPa WNW 5.3 km/h 12.9 km/h 79% 0 mm 0 W/m2
22:04 14.7 °C 11.1 °C 1017.2 hPa WNW 4 km/h 11.3 km/h 79% 0 mm 0 W/m2
22:09 14.6 °C 11 °C 1017.5 hPa WNW 6 km/h 11.3 km/h 79% 0 mm 0 W/m2
22:14 14.5 °C 10.9 °C 1017.5 hPa WNW 5.1 km/h 9.7 km/h 79.2% 0 mm 0 W/m2
22:19 14.3 °C 10.8 °C 1017.5 hPa WNW 5.8 km/h 11.3 km/h 79.2% 0 mm 0 W/m2
22:24 14.3 °C 10.7 °C 1017.5 hPa WNW 4.3 km/h 11.3 km/h 79% 0 mm 0 W/m2
22:29 14.2 °C 10.6 °C 1017.5 hPa WNW 3.1 km/h 6.4 km/h 79% 0 mm 0 W/m2
22:34 14.1 °C 10.5 °C 1017.5 hPa WNW 5.1 km/h 11.3 km/h 79% 0 mm 0 W/m2
22:39 14.1 °C 10.5 °C 1017.5 hPa WNW 5.6 km/h 9.7 km/h 79% 0 mm 0 W/m2
22:44 14 °C 10.4 °C 1017.5 hPa WNW 4.5 km/h 8 km/h 79% 0 mm 0 W/m2
22:49 13.9 °C 10.3 °C 1017.5 hPa WNW 4 km/h 8 km/h 79% 0 mm 0 W/m2
22:54 13.8 °C 10.2 °C 1017.5 hPa WNW 5 km/h 9.7 km/h 79% 0 mm 0 W/m2
22:59 13.8 °C 10 °C 1017.5 hPa West 4.2 km/h 11.3 km/h 78.2% 0 mm 0 W/m2
23:04 13.7 °C 9.9 °C 1017.5 hPa West 5 km/h 8 km/h 78% 0 mm 0 W/m2
23:08 13.6 °C 9.8 °C 1017.5 hPa WNW 3.5 km/h 8 km/h 78% 0 mm 0 W/m2
23:14 13.6 °C 9.8 °C 1017.5 hPa WNW 3.4 km/h 9.7 km/h 78% 0 mm 0 W/m2
23:19 13.6 °C 9.8 °C 1017.5 hPa WNW 3.5 km/h 9.7 km/h 78% 0 mm 0 W/m2
23:24 13.6 °C 9.7 °C 1017.2 hPa WNW 1.9 km/h 4.8 km/h 77.8% 0 mm 0 W/m2
23:29 13.6 °C 9.6 °C 1017.5 hPa WNW 3.4 km/h 6.4 km/h 77% 0 mm 0 W/m2
23:34 13.5 °C 9.5 °C 1017.2 hPa WNW 3.9 km/h 4.8 km/h 77% 0 mm 0 W/m2
23:39 13.4 °C 9.4 °C 1017.2 hPa WNW 3.5 km/h 8 km/h 77% 0 mm 0 W/m2
23:44 13.4 °C 9.5 °C 1017.2 hPa WNW 3.9 km/h 8 km/h 77.6% 0 mm 0 W/m2
23:49 13.4 °C 9.6 °C 1017.5 hPa WNW 3.2 km/h 6.4 km/h 78% 0 mm 0 W/m2
23:54 13.4 °C 9.6 °C 1017.5 hPa WNW 1.3 km/h 6.4 km/h 78% 0 mm 0 W/m2
23:59 13.4 °C 9.6 °C 1017.5 hPa WNW 3.5 km/h 8 km/h 78% 0 mm 0 W/m2
Bath Spa Weather
Compliments of Weather Underground - 2 mb